Time;durP1;ratioP1;P1;durP2;ratioP2;P2;SDS_P1;SDS_P2;PMS_P1;PMS_P2;Temp;Humidity;BMP_temperature;BMP_pressure;BME280_temperature;BME280_humidity;BME280_pressure;Samples;Min_cycle;Max_cycle;Signal;HPM_P1;HPM_P2
2022/09/06 00:02:29;;;;;;;;;3.33;3.33;;;;;;;;5097797;27;45577;-71
2022/09/06 00:04:54;;;;;;;;;2.00;2.00;;;;;;;;5097877;27;45441;-72
2022/09/06 00:07:19;;;;;;;;;3.67;3.67;;;;;;;;5098011;27;45406;-71
2022/09/06 00:09:45;;;;;;;;;3.33;3.33;;;;;;;;5097770;27;45425;-72
2022/09/06 00:12:10;;;;;;;;;2.00;2.00;;;;;;;;5097016;27;45349;-72
2022/09/06 00:14:35;;;;;;;;;3.00;3.00;;;;;;;;5098111;27;45410;-72
2022/09/06 00:17:00;;;;;;;;;4.00;3.00;;;;;;;;5097870;27;45287;-71
2022/09/06 00:19:26;;;;;;;;;4.00;4.00;;;;;;;;5097574;27;45557;-71
2022/09/06 00:21:51;;;;;;;;;5.00;2.67;;;;;;;;5097564;27;45384;-72
2022/09/06 00:24:17;;;;;;;;;3.33;3.00;;;;;;;;5097818;27;45488;-72
2022/09/06 00:26:42;;;;;;;;;2.00;2.00;;;;;;;;5098053;27;45332;-71
2022/09/06 00:29:07;;;;;;;;;2.33;2.33;;;;;;;;5097124;27;46554;-72
2022/09/06 00:31:34;;;;;;;;;2.00;2.00;;;;;;;;5097651;27;45428;-72
2022/09/06 00:33:59;;;;;;;;;2.00;2.00;;;;;;;;5097438;27;45236;-71
2022/09/06 00:36:24;;;;;;;;;3.00;3.00;;;;;;;;5097824;27;45202;-71
2022/09/06 00:38:49;;;;;;;;;2.00;2.00;;;;;;;;5097657;27;45610;-71
2022/09/06 00:41:15;;;;;;;;;2.00;2.00;;;;;;;;5097353;27;45485;-72
2022/09/06 00:43:40;;;;;;;;;2.00;2.00;;;;;;;;5099046;27;45278;-71
2022/09/06 00:46:06;;;;;;;;;2.00;2.00;;;;;;;;5119361;27;45444;-71
2022/09/06 00:48:32;;;;;;;;;1.00;1.00;;;;;;;;5121360;27;46580;-72
2022/09/06 00:50:59;;;;;;;;;1.00;1.00;;;;;;;;5121590;27;45331;-71
2022/09/06 00:53:24;;;;;;;;;2.00;2.00;;;;;;;;5121467;27;45321;-71
2022/09/06 00:55:50;;;;;;;;;0.00;0.00;;;;;;;;5121859;27;45355;-71
2022/09/06 00:58:15;;;;;;;;;4.00;1.00;;;;;;;;5121344;27;45689;-71
2022/09/06 01:00:40;;;;;;;;;0.00;0.00;;;;;;;;5120202;27;45565;-71
2022/09/06 01:03:06;;;;;;;;;2.00;0.67;;;;;;;;5121425;27;45287;-71
2022/09/06 01:05:42;;;;;;;;;1.00;1.00;;;;;;;;5121463;27;45309;-71
2022/09/06 01:08:15;;;;;;;;;2.00;2.00;;;;;;;;5121013;27;46813;-71
2022/09/06 01:10:43;;;;;;;;;2.33;1.00;;;;;;;;5121116;27;46217;-71
2022/09/06 01:13:18;;;;;;;;;2.00;0.00;;;;;;;;5121260;27;45460;-71
2022/09/06 01:16:02;;;;;;;;;0.67;0.67;;;;;;;;5119920;27;45313;-71
2022/09/06 01:18:30;;;;;;;;;0.67;0.67;;;;;;;;5099595;27;45336;-71
2022/09/06 01:21:08;;;;;;;;;2.00;2.00;;;;;;;;5100442;27;45402;-71
2022/09/06 01:23:52;;;;;;;;;4.00;1.33;;;;;;;;5100528;27;45305;-71
2022/09/06 01:26:37;;;;;;;;;2.00;1.00;;;;;;;;5100536;27;45358;-71
2022/09/06 01:29:04;;;;;;;;;3.00;2.00;;;;;;;;5099996;27;45374;-71
2022/09/06 01:31:36;;;;;;;;;1.00;1.00;;;;;;;;5100200;27;45409;-71
2022/09/06 01:34:04;;;;;;;;;3.33;0.33;;;;;;;;5099657;27;45421;-71
2022/09/06 01:36:40;;;;;;;;;0.00;0.00;;;;;;;;5100448;27;45303;-71
2022/09/06 01:39:06;;;;;;;;;2.00;0.33;;;;;;;;5100055;27;46563;-71
2022/09/06 01:41:31;;;;;;;;;1.00;1.00;;;;;;;;5100012;27;45755;-71
2022/09/06 01:43:57;;;;;;;;;1.00;1.00;;;;;;;;5100239;27;45208;-71
2022/09/06 01:46:44;;;;;;;;;2.00;1.00;;;;;;;;5100330;27;45185;-71
2022/09/06 01:49:32;;;;;;;;;0.00;0.00;;;;;;;;5099959;27;46213;-71
2022/09/06 01:52:15;;;;;;;;;3.67;0.67;;;;;;;;5099952;27;45383;-71
2022/09/06 01:54:40;;;;;;;;;1.00;1.00;;;;;;;;5099203;27;45277;-71
2022/09/06 01:57:12;;;;;;;;;0.00;0.00;;;;;;;;5100076;27;45204;-71
2022/09/06 01:59:43;;;;;;;;;0.67;0.00;;;;;;;;5099755;27;45609;-71
2022/09/06 02:02:11;;;;;;;;;1.00;1.00;;;;;;;;5099836;27;45311;-71
2022/09/06 02:04:40;;;;;;;;;0.33;0.33;;;;;;;;5099607;27;45603;-71
2022/09/06 02:07:15;;;;;;;;;2.00;1.33;;;;;;;;5099144;27;45262;-70
2022/09/06 02:09:43;;;;;;;;;1.00;1.00;;;;;;;;5099483;27;46405;-71
2022/09/06 02:12:12;;;;;;;;;0.00;0.00;;;;;;;;5099500;27;45375;-70
2022/09/06 02:14:40;;;;;;;;;0.00;0.00;;;;;;;;5099642;27;45278;-70
2022/09/06 02:17:09;;;;;;;;;0.67;0.67;;;;;;;;5099858;27;45572;-70
2022/09/06 02:19:37;;;;;;;;;0.67;0.67;;;;;;;;5099256;27;46723;-70
2022/09/06 02:22:06;;;;;;;;;1.33;0.00;;;;;;;;5099248;27;45227;-70
2022/09/06 02:24:33;;;;;;;;;1.67;1.67;;;;;;;;5099165;27;45303;-70
2022/09/06 02:26:59;;;;;;;;;0.00;0.00;;;;;;;;5099674;27;45485;-70
2022/09/06 02:29:24;;;;;;;;;2.00;1.00;;;;;;;;5099099;27;46037;-71
2022/09/06 02:31:52;;;;;;;;;1.00;1.00;;;;;;;;5099552;27;45362;-71
2022/09/06 02:34:18;;;;;;;;;1.00;1.00;;;;;;;;5099100;27;45161;-70
2022/09/06 02:36:44;;;;;;;;;1.00;1.00;;;;;;;;5099586;27;45448;-70
2022/09/06 02:39:10;;;;;;;;;1.00;1.00;;;;;;;;5098936;27;46348;-70
2022/09/06 02:41:36;;;;;;;;;3.00;1.00;;;;;;;;5098223;27;45387;-71
2022/09/06 02:44:02;;;;;;;;;2.00;2.00;;;;;;;;5099096;27;45448;-71
2022/09/06 02:46:27;;;;;;;;;3.00;1.00;;;;;;;;5099082;27;45484;-70
2022/09/06 02:48:52;;;;;;;;;2.00;2.00;;;;;;;;5098963;27;46630;-71
2022/09/06 02:51:17;;;;;;;;;1.67;1.00;;;;;;;;5098662;27;45303;-70
2022/09/06 02:53:43;;;;;;;;;1.00;1.00;;;;;;;;5098896;27;45413;-71
2022/09/06 02:56:08;;;;;;;;;1.00;1.00;;;;;;;;5098720;27;45345;-71
2022/09/06 02:58:33;;;;;;;;;2.33;2.00;;;;;;;;5098617;27;46311;-71
2022/09/06 03:00:59;;;;;;;;;2.00;2.00;;;;;;;;5098753;27;45377;-71
2022/09/06 03:03:24;;;;;;;;;1.00;1.00;;;;;;;;5098900;27;45557;-70
2022/09/06 03:05:51;;;;;;;;;2.00;2.00;;;;;;;;5098317;27;45233;-71
2022/09/06 03:08:17;;;;;;;;;2.00;2.00;;;;;;;;5098387;27;46889;-71
2022/09/06 03:10:49;;;;;;;;;3.67;2.00;;;;;;;;5098224;27;45552;-71
2022/09/06 03:13:14;;;;;;;;;4.00;4.00;;;;;;;;5098735;27;45427;-70
2022/09/06 03:15:39;;;;;;;;;2.00;2.00;;;;;;;;5098814;27;45318;-71
2022/09/06 03:18:05;;;;;;;;;7.00;4.00;;;;;;;;5098291;27;46074;-71
2022/09/06 03:20:30;;;;;;;;;4.00;3.00;;;;;;;;5098356;27;45273;-71
2022/09/06 03:22:55;;;;;;;;;2.67;2.67;;;;;;;;5098703;27;45265;-71
2022/09/06 03:25:20;;;;;;;;;6.33;5.00;;;;;;;;5098897;27;45365;-71
2022/09/06 03:27:45;;;;;;;;;7.00;4.00;;;;;;;;5101860;27;46091;-71
2022/09/06 03:30:11;;;;;;;;;5.00;3.67;;;;;;;;5118877;27;45432;-71
2022/09/06 03:32:36;;;;;;;;;2.67;2.67;;;;;;;;5119056;27;45301;-71
2022/09/06 03:35:01;;;;;;;;;5.00;3.00;;;;;;;;5118980;27;45363;-71
2022/09/06 03:37:27;;;;;;;;;3.00;3.00;;;;;;;;5119034;27;45506;-71
2022/09/06 03:39:52;;;;;;;;;3.00;3.00;;;;;;;;5118508;27;45279;-71
2022/09/06 03:42:17;;;;;;;;;12.33;9.67;;;;;;;;5118718;27;45346;-71
2022/09/06 03:44:42;;;;;;;;;6.33;5.33;;;;;;;;5117819;27;45290;-71
2022/09/06 03:47:07;;;;;;;;;3.67;3.00;;;;;;;;5118642;27;46096;-71
2022/09/06 03:49:33;;;;;;;;;4.67;4.67;;;;;;;;5118800;27;45439;-70
2022/09/06 03:51:58;;;;;;;;;3.33;3.33;;;;;;;;5118650;27;45430;-71
2022/09/06 03:54:23;;;;;;;;;4.00;4.00;;;;;;;;5118869;27;45398;-71
2022/09/06 03:56:48;;;;;;;;;5.67;5.67;;;;;;;;5118329;27;46372;-70
2022/09/06 03:59:14;;;;;;;;;3.00;3.00;;;;;;;;5109915;27;45390;-71
2022/09/06 04:01:39;;;;;;;;;4.67;4.67;;;;;;;;5098042;27;45303;-71
2022/09/06 04:04:04;;;;;;;;;5.00;5.00;;;;;;;;5098105;27;45612;-71
2022/09/06 04:06:29;;;;;;;;;4.00;4.00;;;;;;;;5097522;27;46300;-71
2022/09/06 04:08:55;;;;;;;;;5.00;5.00;;;;;;;;5097819;27;45444;-71
2022/09/06 04:11:20;;;;;;;;;7.33;4.33;;;;;;;;5097946;27;45362;-71
2022/09/06 04:13:45;;;;;;;;;3.00;3.00;;;;;;;;5098261;27;45350;-71
2022/09/06 04:16:10;;;;;;;;;2.00;0.67;;;;;;;;5113559;27;45368;-71
2022/09/06 04:18:36;;;;;;;;;4.67;4.00;;;;;;;;5119602;27;45490;-71
2022/09/06 04:21:01;;;;;;;;;4.00;4.00;;;;;;;;5121863;27;45292;-71
2022/09/06 04:23:27;;;;;;;;;4.67;4.67;;;;;;;;5122145;27;45378;-71
2022/09/06 04:25:53;;;;;;;;;2.67;2.67;;;;;;;;5122067;27;45521;-71
2022/09/06 04:28:19;;;;;;;;;4.67;4.67;;;;;;;;5121762;27;45344;-71
2022/09/06 04:30:50;;;;;;;;;5.00;5.00;;;;;;;;5121999;27;45789;-71
2022/09/06 04:33:15;;;;;;;;;4.33;4.33;;;;;;;;5111730;27;45303;-72
2022/09/06 04:35:40;;;;;;;;;7.67;6.00;;;;;;;;5100898;27;46125;-71
2022/09/06 04:38:06;;;;;;;;;5.00;5.00;;;;;;;;5101005;27;45281;-71
2022/09/06 04:40:31;;;;;;;;;8.00;5.00;;;;;;;;5101164;27;45401;-72
2022/09/06 04:42:56;;;;;;;;;5.67;5.67;;;;;;;;5101258;27;45298;-71
2022/09/06 04:45:21;;;;;;;;;5.00;5.00;;;;;;;;5101134;27;45574;-71
2022/09/06 04:47:46;;;;;;;;;5.00;5.00;;;;;;;;5100900;27;45365;-70
2022/09/06 04:50:12;;;;;;;;;5.00;5.00;;;;;;;;5104427;27;45505;-70
2022/09/06 04:52:37;;;;;;;;;4.00;4.00;;;;;;;;5121557;27;45509;-71
2022/09/06 04:55:02;;;;;;;;;5.00;4.33;;;;;;;;5121525;27;46161;-70
2022/09/06 04:57:27;;;;;;;;;5.00;5.00;;;;;;;;5121261;27;45314;-70
2022/09/06 04:59:53;;;;;;;;;4.00;4.00;;;;;;;;5121424;27;45365;-72
2022/09/06 05:02:18;;;;;;;;;6.00;5.00;;;;;;;;5121544;27;45345;-71
2022/09/06 05:04:43;;;;;;;;;3.67;3.67;;;;;;;;5121106;27;45565;-71
2022/09/06 05:07:08;;;;;;;;;6.33;6.33;;;;;;;;5117511;27;45432;-71
2022/09/06 05:09:33;;;;;;;;;6.33;5.67;;;;;;;;5100264;27;45286;-70
2022/09/06 05:11:59;;;;;;;;;8.00;6.00;;;;;;;;5100668;27;45275;-70
2022/09/06 05:14:25;;;;;;;;;7.00;6.00;;;;;;;;5100517;27;46362;-71
2022/09/06 05:16:51;;;;;;;;;4.67;4.67;;;;;;;;5100248;27;45307;-70
2022/09/06 05:19:16;;;;;;;;;4.00;4.00;;;;;;;;5100698;27;45437;-70
2022/09/06 05:21:42;;;;;;;;;6.00;6.00;;;;;;;;5100363;27;45489;-71
2022/09/06 05:24:07;;;;;;;;;13.33;13.33;;;;;;;;5099914;27;46552;-71
2022/09/06 05:26:32;;;;;;;;;14.67;13.00;;;;;;;;5099940;27;45312;-70
2022/09/06 05:28:57;;;;;;;;;15.33;15.33;;;;;;;;5100080;27;45300;-72
2022/09/06 05:31:27;;;;;;;;;7.00;7.00;;;;;;;;5100748;27;45272;-72
2022/09/06 05:33:53;;;;;;;;;6.00;6.00;;;;;;;;5100102;27;46566;-72
2022/09/06 05:36:18;;;;;;;;;9.67;7.67;;;;;;;;5099951;27;45589;-72
2022/09/06 05:38:43;;;;;;;;;4.67;4.67;;;;;;;;5100120;27;45363;-72
2022/09/06 05:41:08;;;;;;;;;8.00;8.00;;;;;;;;5100121;27;45353;-72
2022/09/06 05:43:34;;;;;;;;;5.00;5.00;;;;;;;;5111426;27;46420;-72
2022/09/06 05:45:59;;;;;;;;;4.00;4.00;;;;;;;;5120609;27;45440;-72
2022/09/06 05:48:24;;;;;;;;;8.00;5.00;;;;;;;;5120561;27;45244;-72
2022/09/06 05:51:03;;;;;;;;;6.00;6.00;;;;;;;;5120860;27;45366;-72
2022/09/06 05:53:36;;;;;;;;;8.00;5.00;;;;;;;;5119892;27;46565;-72
2022/09/06 05:56:01;;;;;;;;;6.00;6.00;;;;;;;;5120328;27;45382;-72
2022/09/06 05:58:26;;;;;;;;;5.33;5.33;;;;;;;;5120577;27;45230;-71
2022/09/06 06:00:52;;;;;;;;;8.00;6.33;;;;;;;;5119585;27;45413;-71
2022/09/06 06:03:17;;;;;;;;;8.67;6.00;;;;;;;;5120084;27;45631;-71
2022/09/06 06:05:46;;;;;;;;;8.00;7.00;;;;;;;;5120276;27;45444;-71
2022/09/06 06:08:11;;;;;;;;;5.00;5.00;;;;;;;;5119884;27;45511;-70
2022/09/06 06:10:38;;;;;;;;;6.67;6.00;;;;;;;;5120591;27;45344;-71
2022/09/06 06:13:03;;;;;;;;;7.33;6.00;;;;;;;;5119971;27;47003;-71
2022/09/06 06:15:28;;;;;;;;;13.00;11.33;;;;;;;;5118531;27;45463;-71
2022/09/06 06:17:54;;;;;;;;;13.33;10.33;;;;;;;;5120001;27;45497;-73
2022/09/06 06:20:19;;;;;;;;;13.00;13.00;;;;;;;;5120218;27;45318;-71
2022/09/06 06:22:44;;;;;;;;;10.33;8.00;;;;;;;;5119425;27;46407;-72
2022/09/06 06:25:09;;;;;;;;;6.67;6.67;;;;;;;;5119891;27;45345;-73
2022/09/06 06:27:35;;;;;;;;;11.00;9.33;;;;;;;;5120095;27;45317;-72
2022/09/06 06:30:01;;;;;;;;;12.33;11.33;;;;;;;;5120010;27;45415;-73
2022/09/06 06:32:26;;;;;;;;;6.33;6.33;;;;;;;;5118405;27;46565;-73
2022/09/06 06:34:51;;;;;;;;;5.33;5.33;;;;;;;;5120051;27;45378;-72
2022/09/06 06:37:17;;;;;;;;;6.67;6.67;;;;;;;;5119840;27;45236;-73
2022/09/06 06:39:42;;;;;;;;;7.00;7.00;;;;;;;;5119899;27;45434;-72
2022/09/06 06:42:08;;;;;;;;;8.67;7.00;;;;;;;;5119041;27;45617;-72
2022/09/06 06:44:33;;;;;;;;;9.00;7.00;;;;;;;;5119611;27;45210;-73
2022/09/06 06:47:00;;;;;;;;;6.33;5.00;;;;;;;;5119930;27;45259;-73
2022/09/06 06:49:27;;;;;;;;;5.67;5.67;;;;;;;;5111771;27;45464;-73
2022/09/06 06:51:52;;;;;;;;;10.33;6.67;;;;;;;;5098770;27;46590;-74
2022/09/06 06:54:17;;;;;;;;;8.00;6.33;;;;;;;;5098705;27;45374;-73
2022/09/06 06:56:44;;;;;;;;;9.00;9.00;;;;;;;;5099033;27;45337;-73
2022/09/06 06:59:09;;;;;;;;;6.00;6.00;;;;;;;;5099285;27;45370;-73
2022/09/06 07:01:35;;;;;;;;;8.00;8.00;;;;;;;;5097797;27;47597;-73
2022/09/06 07:04:00;;;;;;;;;7.33;7.33;;;;;;;;5098707;27;45402;-73
2022/09/06 07:06:29;;;;;;;;;12.67;10.67;;;;;;;;5098373;27;45792;-73
2022/09/06 07:08:57;;;;;;;;;6.33;5.33;;;;;;;;5098398;27;45288;-73
2022/09/06 07:11:23;;;;;;;;;13.33;12.67;;;;;;;;5097578;27;46980;-72
2022/09/06 07:13:48;;;;;;;;;9.33;8.00;;;;;;;;5098052;27;45350;-73
2022/09/06 07:16:19;;;;;;;;;9.00;5.67;;;;;;;;5098389;27;45425;-74
2022/09/06 07:18:44;;;;;;;;;7.00;7.00;;;;;;;;5098926;27;45335;-73
2022/09/06 07:21:14;;;;;;;;;6.00;6.00;;;;;;;;5098202;27;47302;-73
2022/09/06 07:23:40;;;;;;;;;10.00;10.00;;;;;;;;5097622;27;46192;-73
2022/09/06 07:26:06;;;;;;;;;6.33;6.33;;;;;;;;5098371;27;45446;-73
2022/09/06 07:28:31;;;;;;;;;6.67;6.67;;;;;;;;5098493;27;45443;-73
2022/09/06 07:30:56;;;;;;;;;9.00;8.33;;;;;;;;5098144;27;46370;-74
2022/09/06 07:33:22;;;;;;;;;5.67;5.67;;;;;;;;5097944;27;45543;-73
2022/09/06 07:35:54;;;;;;;;;7.00;7.00;;;;;;;;5098460;27;45329;-74
2022/09/06 07:38:19;;;;;;;;;5.00;5.00;;;;;;;;5098424;27;45447;-74
2022/09/06 07:40:51;;;;;;;;;9.00;7.00;;;;;;;;5097224;27;46210;-73
2022/09/06 07:43:16;;;;;;;;;9.67;9.67;;;;;;;;5098048;27;45227;-74
2022/09/06 07:45:41;;;;;;;;;10.00;10.00;;;;;;;;5098269;27;45229;-74
2022/09/06 07:48:07;;;;;;;;;7.33;7.33;;;;;;;;5098440;27;45304;-74
2022/09/06 07:50:32;;;;;;;;;9.33;8.00;;;;;;;;5098044;27;45405;-74
2022/09/06 07:53:04;;;;;;;;;10.67;9.67;;;;;;;;5096779;27;45318;-74
2022/09/06 07:55:29;;;;;;;;;7.00;7.00;;;;;;;;5097955;27;45226;-74
2022/09/06 07:57:55;;;;;;;;;9.33;8.33;;;;;;;;5101482;27;45399;-73
2022/09/06 08:00:20;;;;;;;;;6.00;6.00;;;;;;;;5118521;27;45275;-73
2022/09/06 08:02:45;;;;;;;;;16.67;13.33;;;;;;;;5118178;27;45390;-74
2022/09/06 08:05:11;;;;;;;;;8.00;8.00;;;;;;;;5118563;27;45291;-73
2022/09/06 08:07:36;;;;;;;;;7.00;7.00;;;;;;;;5118624;27;46213;-72
2022/09/06 08:10:02;;;;;;;;;9.00;7.33;;;;;;;;5118188;27;46112;-73
2022/09/06 08:12:28;;;;;;;;;6.00;6.00;;;;;;;;5118438;27;45320;-72
2022/09/06 08:14:53;;;;;;;;;6.00;6.00;;;;;;;;5117168;27;45437;-72
2022/09/06 08:17:18;;;;;;;;;6.00;6.00;;;;;;;;5118754;27;45455;-73
2022/09/06 08:19:44;;;;;;;;;6.00;4.00;;;;;;;;5118289;27;47270;-73
2022/09/06 08:22:09;;;;;;;;;9.33;7.00;;;;;;;;5118336;27;45323;-73
2022/09/06 08:24:34;;;;;;;;;4.00;4.00;;;;;;;;5118305;27;45418;-73
2022/09/06 08:27:00;;;;;;;;;9.00;9.00;;;;;;;;5115908;27;45424;-73
2022/09/06 08:29:26;;;;;;;;;53.00;42.50;;;;;;;;5105982;27;45544;-72
2022/09/06 08:31:51;;;;;;;;;75.50;56.00;;;;;;;;5118035;27;45517;-72
2022/09/06 08:34:16;;;;;;;;;68.25;51.00;;;;;;;;5105915;27;45301;-73
2022/09/06 08:36:42;;;;;;;;;27.67;20.33;;;;;;;;5097577;27;45431;-73
2022/09/06 08:39:08;;;;;;;;;24.00;20.33;;;;;;;;5096295;27;45744;-72
2022/09/06 08:41:34;;;;;;;;;22.00;16.33;;;;;;;;5096812;27;45756;-72
2022/09/06 08:43:59;;;;;;;;;13.33;11.67;;;;;;;;5097276;27;45300;-72
2022/09/06 08:46:50;;;;;;;;;9.33;9.33;;;;;;;;5108973;27;45353;-72
2022/09/06 08:49:15;;;;;;;;;7.33;6.00;;;;;;;;5114544;27;45298;-72
2022/09/06 08:51:50;;;;;;;;;5.00;5.00;;;;;;;;5117652;27;45379;-71
2022/09/06 08:54:15;;;;;;;;;6.00;6.00;;;;;;;;5117671;27;45471;-72
2022/09/06 08:56:48;;;;;;;;;5.00;5.00;;;;;;;;5117688;27;45355;-72
2022/09/06 08:59:16;;;;;;;;;7.33;7.33;;;;;;;;5117868;27;46442;-72
2022/09/06 09:02:00;;;;;;;;;7.00;5.33;;;;;;;;5117302;27;45357;-71
2022/09/06 09:04:27;;;;;;;;;5.00;5.00;;;;;;;;5118711;27;45313;-72
2022/09/06 09:06:57;;;;;;;;;6.33;4.00;;;;;;;;5121670;27;45369;-72
2022/09/06 09:09:23;;;;;;;;;5.00;5.00;;;;;;;;5120495;27;45469;-72
2022/09/06 09:11:49;;;;;;;;;8.33;5.00;;;;;;;;5121133;27;45372;-73
2022/09/06 09:14:17;;;;;;;;;7.33;6.67;;;;;;;;5120937;27;45451;-73
2022/09/06 09:16:43;;;;;;;;;6.00;4.33;;;;;;;;5121130;27;45449;-73
2022/09/06 09:19:08;;;;;;;;;2.00;1.33;;;;;;;;5115251;27;45742;-73
2022/09/06 09:21:35;;;;;;;;;74.00;64.25;;;;;;;;5106737;27;45318;-71
2022/09/06 09:24:03;;;;;;;;;10.00;8.00;;;;;;;;5099935;27;45340;-71
2022/09/06 09:26:31;;;;;;;;;4.67;3.33;;;;;;;;5100576;27;45253;-71
2022/09/06 09:29:03;;;;;;;;;3.00;3.00;;;;;;;;5099877;27;46419;-72
2022/09/06 09:31:48;;;;;;;;;6.67;3.33;;;;;;;;5105397;27;45405;-73
2022/09/06 09:34:26;;;;;;;;;3.67;3.33;;;;;;;;5120957;27;45256;-73
2022/09/06 09:37:11;;;;;;;;;2.00;2.00;;;;;;;;5120673;27;45530;-73
2022/09/06 09:39:38;;;;;;;;;5.00;4.00;;;;;;;;5120276;27;47612;-74
2022/09/06 09:42:03;;;;;;;;;2.67;2.67;;;;;;;;5120391;27;45227;-71
2022/09/06 09:44:28;;;;;;;;;4.33;2.00;;;;;;;;5120639;27;45914;-71
2022/09/06 09:46:54;;;;;;;;;2.67;2.67;;;;;;;;5120695;27;45204;-69
2022/09/06 09:49:26;;;;;;;;;4.67;3.00;;;;;;;;5120169;27;46279;-69
2022/09/06 09:52:11;;;;;;;;;3.33;3.33;;;;;;;;5120218;27;45337;-69
2022/09/06 09:54:39;;;;;;;;;2.67;2.33;;;;;;;;5119711;27;45359;-69
2022/09/06 09:57:13;;;;;;;;;1.33;1.33;;;;;;;;5120622;27;45685;-69
2022/09/06 09:59:44;;;;;;;;;1.33;1.33;;;;;;;;5120123;27;46666;-70
2022/09/06 10:02:18;;;;;;;;;1.67;1.67;;;;;;;;5120434;27;45338;-70
2022/09/06 10:04:45;;;;;;;;;2.00;2.00;;;;;;;;5106898;27;45476;-70
2022/09/06 10:07:17;;;;;;;;;4.00;3.00;;;;;;;;5119534;27;45383;-70
2022/09/06 10:09:45;;;;;;;;;2.33;1.00;;;;;;;;5112879;27;46709;-71
2022/09/06 10:12:30;;;;;;;;;2.00;2.00;;;;;;;;5099276;27;45457;-68
2022/09/06 10:14:56;;;;;;;;;1.00;1.00;;;;;;;;5099568;27;45368;-69
2022/09/06 10:17:29;;;;;;;;;1.00;1.00;;;;;;;;5098511;27;45454;-69
2022/09/06 10:19:55;;;;;;;;;1.33;1.00;;;;;;;;5099551;27;46797;-69
2022/09/06 10:22:20;;;;;;;;;1.00;1.00;;;;;;;;5109604;27;45480;-70
2022/09/06 10:24:48;;;;;;;;;2.00;1.33;;;;;;;;5119863;27;45640;-70
2022/09/06 10:27:18;;;;;;;;;0.00;0.00;;;;;;;;5120275;27;45238;-70
2022/09/06 10:29:43;;;;;;;;;1.33;1.00;;;;;;;;5119667;27;46500;-70
2022/09/06 10:32:32;;;;;;;;;2.33;0.67;;;;;;;;5119828;27;45447;-70
2022/09/06 10:35:17;;;;;;;;;0.33;0.00;;;;;;;;5056641;28;45980;-70
2022/09/06 10:38:01;;;;;;;;;0.33;0.33;;;;;;;;5056122;28;45343;-70
2022/09/06 10:40:32;;;;;;;;;1.33;1.33;;;;;;;;5055846;28;46391;-68
2022/09/06 10:42:59;;;;;;;;;0.00;0.00;;;;;;;;5056147;28;45475;-71
2022/09/06 10:45:28;;;;;;;;;0.00;0.00;;;;;;;;5055940;28;45421;-68
2022/09/06 10:47:53;;;;;;;;;0.00;0.00;;;;;;;;5056424;28;45466;-70
2022/09/06 10:50:18;;;;;;;;;0.67;0.67;;;;;;;;5055942;28;45338;-71
2022/09/06 10:52:47;;;;;;;;;1.67;0.67;;;;;;;;5055895;28;45366;-70
2022/09/06 10:55:15;;;;;;;;;3.33;0.00;;;;;;;;5056085;28;45385;-70
2022/09/06 10:57:45;;;;;;;;;0.33;0.33;;;;;;;;5055973;28;45380;-70
2022/09/06 11:00:13;;;;;;;;;0.33;0.33;;;;;;;;5055733;28;46145;-69
2022/09/06 11:02:38;;;;;;;;;0.00;0.00;;;;;;;;5055828;28;45635;-70
2022/09/06 11:05:07;;;;;;;;;1.67;0.67;;;;;;;;5055419;28;45623;-70
2022/09/06 11:07:38;;;;;;;;;0.67;0.67;;;;;;;;5056006;28;45277;-69
2022/09/06 11:10:04;;;;;;;;;1.67;1.67;;;;;;;;5055145;28;45448;-70
2022/09/06 11:12:33;;;;;;;;;6.33;5.00;;;;;;;;5101576;27;45393;-70
2022/09/06 11:15:01;;;;;;;;;0.00;0.00;;;;;;;;5119519;27;45421;-70
2022/09/06 11:17:26;;;;;;;;;0.00;0.00;;;;;;;;5119233;27;45484;-69
2022/09/06 11:20:09;;;;;;;;;1.00;1.00;;;;;;;;5119005;27;45571;-68
2022/09/06 11:22:43;;;;;;;;;2.00;2.00;;;;;;;;5119159;27;45253;-69
2022/09/06 11:25:27;;;;;;;;;1.67;1.67;;;;;;;;5118840;27;45371;-68
2022/09/06 11:27:55;;;;;;;;;1.00;1.00;;;;;;;;5119228;27;45377;-68
2022/09/06 11:30:21;;;;;;;;;2.00;2.00;;;;;;;;5100177;27;46552;-68
2022/09/06 11:32:50;;;;;;;;;4.67;2.00;;;;;;;;5119000;27;45259;-68
2022/09/06 11:35:33;;;;;;;;;2.00;2.00;;;;;;;;5118949;27;45329;-69
2022/09/06 11:38:03;;;;;;;;;2.67;1.00;;;;;;;;5119027;27;45442;-69
2022/09/06 11:40:36;;;;;;;;;1.00;1.00;;;;;;;;5118298;27;45760;-69
2022/09/06 11:43:02;;;;;;;;;4.00;2.33;;;;;;;;5100140;27;45351;-70
2022/09/06 11:45:39;;;;;;;;;2.33;1.00;;;;;;;;5118743;27;45290;-69
2022/09/06 11:48:37;;;;;;;;;1.33;1.33;;;;;;;;5118984;27;45397;-69
2022/09/06 11:51:05;;;;;;;;;1.67;1.67;;;;;;;;5055040;28;45521;-70
2022/09/06 11:53:50;;;;;;;;;1.00;1.00;;;;;;;;5054983;28;45443;-70
2022/09/06 11:56:24;;;;;;;;;2.33;2.00;;;;;;;;5054354;28;45522;-68
2022/09/06 11:58:52;;;;;;;;;2.00;2.00;;;;;;;;5044632;28;45463;-69
2022/09/06 12:01:19;;;;;;;;;1.00;1.00;;;;;;;;5034619;28;46228;-69
2022/09/06 12:03:47;;;;;;;;;1.33;1.33;;;;;;;;5034699;28;45430;-70
2022/09/06 12:06:23;;;;;;;;;1.00;1.00;;;;;;;;5048950;28;45229;-71
2022/09/06 12:08:51;;;;;;;;;5.00;3.67;;;;;;;;5054719;28;45380;-71
2022/09/06 12:11:35;;;;;;;;;1.67;1.33;;;;;;;;5054421;28;46546;-70
2022/09/06 12:14:06;;;;;;;;;1.67;1.67;;;;;;;;5054587;28;45384;-70
2022/09/06 12:16:57;;;;;;;;;2.00;2.00;;;;;;;;5054856;28;45270;-69
2022/09/06 12:19:41;;;;;;;;;2.00;2.00;;;;;;;;5032115;28;45578;-70
2022/09/06 12:22:25;;;;;;;;;2.00;2.00;;;;;;;;5054568;28;46548;-70
2022/09/06 12:25:00;;;;;;;;;4.33;4.00;;;;;;;;5052364;28;45428;-69
2022/09/06 12:27:25;;;;;;;;;3.00;1.67;;;;;;;;5090018;27;45348;-70
2022/09/06 12:29:58;;;;;;;;;1.00;1.00;;;;;;;;5097891;27;45365;-69
2022/09/06 12:32:32;;;;;;;;;3.33;1.00;;;;;;;;5097498;27;45389;-70
2022/09/06 12:34:58;;;;;;;;;1.33;1.33;;;;;;;;5097559;27;45288;-70
2022/09/06 12:37:32;;;;;;;;;8.00;6.00;;;;;;;;5079076;27;45394;-69
2022/09/06 12:39:58;;;;;;;;;9.00;7.33;;;;;;;;5102587;27;45166;-70
2022/09/06 12:42:23;;;;;;;;;2.00;1.00;;;;;;;;5100685;27;46175;-69
2022/09/06 12:44:50;;;;;;;;;3.00;2.00;;;;;;;;5100873;27;45413;-70
2022/09/06 12:47:24;;;;;;;;;1.00;1.00;;;;;;;;5101177;27;45433;-70
2022/09/06 12:50:06;;;;;;;;;2.00;2.00;;;;;;;;5101146;27;45511;-70
2022/09/06 12:52:31;;;;;;;;;2.00;0.67;;;;;;;;5100719;27;46322;-70
2022/09/06 12:54:57;;;;;;;;;3.00;1.33;;;;;;;;5101060;27;45427;-70
2022/09/06 12:57:23;;;;;;;;;2.00;2.00;;;;;;;;5104164;27;45537;-70
2022/09/06 12:59:55;;;;;;;;;3.00;1.00;;;;;;;;5118090;27;45473;-69
2022/09/06 13:02:34;;;;;;;;;2.00;2.00;;;;;;;;5116718;27;46303;-69
2022/09/06 13:05:04;;;;;;;;;2.00;0.67;;;;;;;;5100529;27;45507;-70
2022/09/06 13:07:30;;;;;;;;;5.67;4.33;;;;;;;;5100668;27;45325;-70
2022/09/06 13:09:57;;;;;;;;;2.00;1.67;;;;;;;;5100696;27;45189;-69
2022/09/06 13:12:25;;;;;;;;;1.00;1.00;;;;;;;;5100290;27;46422;-70
2022/09/06 13:14:52;;;;;;;;;2.00;2.00;;;;;;;;5088856;27;45502;-68
2022/09/06 13:17:25;;;;;;;;;2.00;2.00;;;;;;;;5121203;27;45318;-69
2022/09/06 13:19:51;;;;;;;;;3.00;1.00;;;;;;;;5121159;27;45528;-69
2022/09/06 13:22:36;;;;;;;;;1.00;1.00;;;;;;;;5120595;27;46488;-69
2022/09/06 13:25:01;;;;;;;;;1.67;1.67;;;;;;;;5120731;27;45341;-68
2022/09/06 13:27:30;;;;;;;;;1.00;1.00;;;;;;;;5120988;27;45287;-70
2022/09/06 13:29:59;;;;;;;;;5.00;2.00;;;;;;;;5121095;27;45291;-69
2022/09/06 13:32:28;;;;;;;;;2.00;2.00;;;;;;;;5120889;27;45333;-70
2022/09/06 13:34:57;;;;;;;;;1.33;1.33;;;;;;;;5120779;27;45245;-70
2022/09/06 13:37:24;;;;;;;;;2.33;1.00;;;;;;;;5120838;27;45828;-70
2022/09/06 13:39:49;;;;;;;;;1.00;1.00;;;;;;;;5121036;27;45350;-69
2022/09/06 13:42:26;;;;;;;;;1.67;1.67;;;;;;;;5118935;27;45576;-71
2022/09/06 13:44:51;;;;;;;;;1.33;1.00;;;;;;;;5120568;27;45464;-71
2022/09/06 13:47:16;;;;;;;;;2.67;2.67;;;;;;;;5120903;27;45516;-70
2022/09/06 13:49:42;;;;;;;;;2.00;2.00;;;;;;;;5120793;27;45440;-70
2022/09/06 13:52:07;;;;;;;;;6.00;3.00;;;;;;;;5120278;27;46603;-69
2022/09/06 13:54:33;;;;;;;;;6.00;6.00;;;;;;;;5120575;27;45413;-70
2022/09/06 13:57:00;;;;;;;;;2.00;1.00;;;;;;;;5120423;27;45315;-70
2022/09/06 13:59:26;;;;;;;;;1.00;1.00;;;;;;;;5119471;27;45239;-71
2022/09/06 14:02:10;;;;;;;;;2.00;2.00;;;;;;;;5099448;27;46553;-71
2022/09/06 14:04:36;;;;;;;;;9.00;9.00;;;;;;;;5099806;27;45288;-71
2022/09/06 14:07:02;;;;;;;;;1.67;1.67;;;;;;;;5099705;27;45429;-71
2022/09/06 14:09:28;;;;;;;;;1.67;1.67;;;;;;;;5099944;27;45202;-70
2022/09/06 14:11:53;;;;;;;;;2.00;2.00;;;;;;;;5099203;27;45580;-70
2022/09/06 14:14:18;;;;;;;;;1.00;1.00;;;;;;;;5099836;27;45193;-70
2022/09/06 14:16:44;;;;;;;;;1.33;1.33;;;;;;;;5099156;27;45345;-70
2022/09/06 14:19:10;;;;;;;;;1.00;1.00;;;;;;;;5099632;27;45708;-70
2022/09/06 14:21:35;;;;;;;;;1.00;1.00;;;;;;;;5099345;27;46190;-70
2022/09/06 14:24:01;;;;;;;;;2.00;2.00;;;;;;;;5099389;27;45331;-70
2022/09/06 14:26:26;;;;;;;;;2.00;2.00;;;;;;;;5099636;27;45280;-70
2022/09/06 14:28:52;;;;;;;;;4.33;4.33;;;;;;;;5099298;27;45403;-70
2022/09/06 14:31:22;;;;;;;;;4.67;3.67;;;;;;;;5099097;27;46341;-70
2022/09/06 14:33:47;;;;;;;;;2.00;1.00;;;;;;;;5098639;27;45331;-70
2022/09/06 14:36:16;;;;;;;;;3.00;3.00;;;;;;;;5099288;27;45211;-70
2022/09/06 14:38:43;;;;;;;;;3.00;3.00;;;;;;;;5099555;27;45379;-70
2022/09/06 14:41:09;;;;;;;;;3.33;1.33;;;;;;;;5098989;27;46273;-70
2022/09/06 14:43:34;;;;;;;;;1.00;1.00;;;;;;;;5098671;27;45358;-70
2022/09/06 14:46:07;;;;;;;;;2.00;2.00;;;;;;;;5099202;27;45417;-71
2022/09/06 14:48:33;;;;;;;;;1.00;1.00;;;;;;;;5098880;27;45275;-70